Elko, Georgia
Current Conditions -  °F | °C
As of 4:35 AM on Tuesday 21 Oct 2014 (Local Time) from KPXE Reporting Station
Clear Clear  
Wind Chill: 53°   Ceiling: Unl
Heat Index: 53°   Visibility: 7mi
Dew Point: 50°   Wind: 0mph
Humidity: 91%   Direction: NA
Pressure: 29.99"   Gusts: NA
Location:  32.33°N, 83.71°W
Report Text: KPXE 210835Z AUTO 00000KT 7SM CLR 12/10 A2999 RMK AO2 T01170102
Loading
Personal Weather Stations






























Interactive Weather Map
Tropical Storm Tracking
New forecast layout! Learn more

10-Day Weather Forecast

Advertisements
Track Severe Weather on mobile